Home   Weather   Germany   Potsdam   Past weeks
Flag for Germany

Past Weather in Potsdam, Brandenburg, Germany — Yesterday and Last 2 Weeks

Currently: 90 °F. Passing clouds. (Weather station: Berlin-Schoenefeld, Germany). See more current weather

Past Weather in Potsdam — Graph

°F

Potsdam Temperature Yesterday

Maximum temperature yesterday: 88 °F (at 4:20 pm)
Minimum temperature yesterday: 61 °F (at 6:20 am)
Average temperature yesterday: 75 °F

High & Low Weather Summary for the Past Weeks

 TemperatureHumidityPressure
High99 °F (Aug 4, 3:50 pm)100% (Aug 16, 4:50 am)30.36 "Hg (Aug 16, 4:50 am)
Low48 °F (Aug 7, 5:20 am)19% (Aug 4, 4:20 pm)29.59 "Hg (Aug 15, 4:20 pm)
Average74 °F52%30.06 "Hg
* Reported Aug 2 5:20 pm — Aug 17 5:20 pm, Potsdam. Weather by CustomWeather, © 2022

Note: Actual official high and low records may vary slightly from our data, if they occured in-between our weather recording intervals... More about our weather records

Potsdam Weather History for the Previous 24 Hours

Scroll right to see more
 ConditionsComfort  
Time TempWeatherWind HumidityBarometerVisibility
5:20 pm
Wed, Aug 17
90 °FPassing clouds.5 mph29%29.83 "HgN/A
4:50 pm90 °FSunny.3 mph29%29.83 "Hg10 mi
4:20 pm88 °FPassing clouds.7 mph31%29.83 "HgN/A
3:50 pm91 °FPassing clouds.6 mph28%29.86 "HgN/A
3:20 pm91 °FPassing clouds.5 mph28%29.86 "HgN/A
2:50 pm88 °FPassing clouds.3 mph29%29.86 "HgN/A
2:20 pm88 °FPassing clouds.6 mph31%29.86 "HgN/A
1:50 pm90 °FPassing clouds.3 mph29%29.86 "HgN/A
1:20 pm88 °FSunny.3 mph31%29.86 "Hg10 mi
12:50 pm88 °FPassing clouds.6 mph31%29.86 "HgN/A
12:20 pm88 °FSunny.5 mph31%29.86 "Hg10 mi
11:50 am88 °FPassing clouds.8 mph33%29.89 "HgN/A
10:50 am86 °FSunny.6 mph35%29.89 "Hg10 mi
10:20 am86 °FPassing clouds.5 mph35%29.89 "HgN/A
9:50 am84 °FSunny.3 mph40%29.89 "Hg10 mi
9:20 am82 °FSunny.2 mph42%29.86 "Hg10 mi
8:50 am79 °FPassing clouds.2 mph51%29.89 "HgN/A
8:20 am73 °FSunny.1 mph65%29.86 "Hg10 mi
7:50 am73 °FSunny.2 mph69%29.86 "Hg10 mi
7:20 am70 °FSunny.2 mph78%29.86 "Hg10 mi
6:50 am66 °FSunny.2 mph83%29.86 "Hg10 mi
6:20 am63 °FSunny.2 mph88%29.86 "Hg10 mi
5:50 am63 °FClear.2 mph88%29.86 "Hg10 mi
5:20 am63 °FClear.1 mph88%29.86 "Hg10 mi
4:50 am63 °FClear.1 mph83%29.86 "Hg10 mi
4:20 am63 °FClear.1 mph83%29.86 "Hg10 mi
3:50 am63 °FClear.1 mph83%29.86 "Hg10 mi
2:50 am66 °FClear.3 mph78%29.86 "Hg10 mi
1:20 am66 °FClear.1 mph78%29.86 "Hg10 mi
12:20 am68 °FClear.3 mph69%29.83 "Hg10 mi
11:50 pm
Tue, Aug 16
70 °FClear.1 mph64%29.83 "Hg10 mi
11:20 pm72 °FClear.1 mph61%29.83 "Hg10 mi
10:50 pm72 °FClear.2 mph61%29.83 "Hg10 mi
10:20 pm73 °FClear.3 mph57%29.83 "Hg10 mi
9:20 pm77 °FClear.2 mph47%29.83 "Hg10 mi
8:20 pm82 °FSunny.3 mph40%29.80 "Hg10 mi
7:50 pm84 °FSunny.3 mph37%29.80 "Hg10 mi
7:20 pm84 °FSunny.5 mph37%29.80 "Hg10 mi
6:50 pm84 °FSunny.7 mph37%29.80 "Hg10 mi
6:20 pm86 °FSunny.10 mph35%29.80 "Hg10 mi
Weather by CustomWeather, © 2022

See weather overview